»·PEaware :: N5GL 05U-KRNO

N5GL :: 05U-KRNO

FLIGHT INFORMATION

Flight Status: Arrived
Operator: Privately registered:
United States
More flights under this callsign
Pilot: Georg L. (13308)
Aircraft: SOCATA TBM-900
(TBM9)
More flights by this aircraft type
Origin: 05U Eureka
United States
Destination: KRNO Reno/Tahoe Intl
United States
More flights between these airports :: More routes between these airports
Route: TOYBE LLC ANAHO2
File this flight plan on PilotEdge
Remarks:
Altitude:
(Current/Filed)
24,000ft
Speed:
(Current/Filed)
315kts
Departed: 21-Sep-20 07:37 AM
Arrived: 21-Sep-20 08:24 AM
Distance/Time
Traveled:
174nm/0:46
Distance/Time
To Go:
Arrived

Flight Plot

Page will automatically refresh every two minutes.

Flight plan parsing failed; only flown route is shown


Map Options




Map Legend


Flown Route
Filed Route
Departure Airport
Arrival Airport
Navaid (VOR, NDB)
Fix

Horizontal Profiles

Position Reports

Time Latitude Longitude Heading Altitude Ground
Speed
21-Sep-20 07:23 39.599346 -116.005905 101 5957ft 0kts
21-Sep-20 07:24 39.599346 -116.005905 101 5957ft 0kts
21-Sep-20 07:25 39.599346 -116.005905 101 5957ft 0kts
21-Sep-20 07:26 39.599346 -116.005905 101 5957ft 0kts
21-Sep-20 07:27 39.599346 -116.005905 101 5957ft 0kts
21-Sep-20 07:28 39.599346 -116.005905 101 5957ft 0kts
21-Sep-20 07:29 39.599346 -116.005905 101 5957ft 0kts
21-Sep-20 07:30 39.599346 -116.005905 101 5957ft 0kts
21-Sep-20 07:31 39.599346 -116.005905 101 5957ft 0kts
21-Sep-20 07:32 39.599306 -116.005737 127 5957ft 4kts
21-Sep-20 07:33 39.594461 -116.006672 158 5957ft 2kts
21-Sep-20 07:34 39.594456 -116.006670 158 5957ft 0kts
21-Sep-20 07:35 39.594300 -116.005958 9 5957ft 0kts
21-Sep-20 07:36 39.615814 -115.998566 21 6921ft 124kts
21-Sep-20 07:37 39.633921 -116.028851 272 9155ft 154kts
21-Sep-20 07:38 39.641333 -116.083143 279 11696ft 154kts
21-Sep-20 07:39 39.652313 -116.135339 282 14019ft 169kts
21-Sep-20 07:40 39.668503 -116.206649 284 15057ft 215kts
21-Sep-20 07:41 39.685263 -116.280052 284 16789ft 217kts
21-Sep-20 07:42 39.702625 -116.356287 285 18561ft 222kts
21-Sep-20 07:43 39.719150 -116.434742 283 20190ft 228kts
21-Sep-20 07:44 39.735311 -116.515725 284 21624ft 235kts
21-Sep-20 07:45 39.751869 -116.599067 284 23159ft 242kts
21-Sep-20 07:47 39.769045 -116.685822 283 24296ft 264kts
21-Sep-20 07:48 39.788521 -116.784776 283 24290ft 294kts
21-Sep-20 07:49 39.809126 -116.889922 283 24284ft 301kts
21-Sep-20 07:50 39.829806 -116.995993 283 24253ft 303kts
21-Sep-20 07:51 39.850442 -117.102380 282 24220ft 304kts
21-Sep-20 07:52 39.871026 -117.209115 282 24210ft 303kts
21-Sep-20 07:53 39.891537 -117.315978 282 24211ft 303kts
21-Sep-20 07:54 39.911888 -117.422674 282 24210ft 303kts
21-Sep-20 07:55 39.932117 -117.529264 282 24210ft 303kts
21-Sep-20 07:56 39.952348 -117.636425 282 24210ft 303kts
21-Sep-20 07:57 39.972500 -117.743785 281 24211ft 304kts
21-Sep-20 07:58 39.992473 -117.850759 281 24211ft 304kts
21-Sep-20 07:59 40.012395 -117.958077 281 24180ft 305kts
21-Sep-20 08:00 40.032289 -118.065823 281 24147ft 305kts
21-Sep-20 08:01 40.052048 -118.173444 281 24138ft 305kts
21-Sep-20 08:02 40.071685 -118.280980 281 24137ft 303kts
21-Sep-20 08:02 40.087872 -118.370115 281 24137ft 302kts
21-Sep-20 08:04 40.110342 -118.494513 281 24135ft 301kts
21-Sep-20 08:05 40.120985 -118.601046 254 24143ft 294kts
21-Sep-20 08:05 40.104113 -118.687612 254 24137ft 294kts
21-Sep-20 08:07 40.080474 -118.809688 254 23619ft 307kts
21-Sep-20 08:07 40.062621 -118.901460 254 22450ft 317kts
21-Sep-20 08:08 40.040758 -119.013343 254 21028ft 312kts
21-Sep-20 08:10 40.016075 -119.138854 254 19440ft 302kts
21-Sep-20 08:10 39.998667 -119.226872 254 18330ft 299kts
21-Sep-20 08:11 39.977837 -119.331797 254 17010ft 298kts
21-Sep-20 08:12 39.956729 -119.434532 252 15992ft 281kts
21-Sep-20 08:13 39.922533 -119.518770 220 15313ft 278kts
21-Sep-20 08:14 39.864142 -119.584135 220 11888ft 270kts
21-Sep-20 08:15 39.816415 -119.649982 260 9839ft 235kts
21-Sep-20 08:16 39.815563 -119.736312 264 8626ft 240kts
21-Sep-20 08:17 39.763742 -119.766038 180 8599ft 219kts
21-Sep-20 08:18 39.701616 -119.766250 180 7843ft 218kts
21-Sep-20 08:19 39.644993 -119.766434 179 7011ft 174kts
21-Sep-20 08:20 39.600210 -119.766553 179 6170ft 163kts
21-Sep-20 08:21 39.553786 -119.766649 179 5232ft 153kts
21-Sep-20 08:22 39.521022 -119.766732 180 4617ft 95kts
21-Sep-20 08:23 39.502893 -119.766656 123 4406ft 8kts
21-Sep-20 08:24 39.502680 -119.765694 178 4405ft 0kts
21-Sep-20 08:25 39.500855 -119.765362 84 4404ft 2kts
21-Sep-20 08:26 39.500458 -119.764951 267 4404ft 0kts
21-Sep-20 08:27 39.500458 -119.764952 267 4404ft 0kts
21-Sep-20 08:28 39.500458 -119.764952 267 4404ft 0kts
21-Sep-20 08:29 39.500458 -119.764951 267 4404ft 0kts
21-Sep-20 08:30 39.500458 -119.764951 267 4404ft 0kts
21-Sep-20 08:31 39.500458 -119.764951 267 4404ft 0kts
21-Sep-20 08:32 39.500458 -119.764951 267 4404ft 0kts
21-Sep-20 08:33 39.500458 -119.764951 267 4404ft 0kts
21-Sep-20 08:34 39.500458 -119.764951 267 4404ft 0kts
21-Sep-20 08:35 39.500458 -119.764951 267 4404ft 0kts
21-Sep-20 08:36 39.500458 -119.764951 267 4404ft 0kts
21-Sep-20 08:37 39.500458 -119.764951 267 4404ft 0kts

Navigation Log

Ident Type
Flight plan parsing failed, navigation log unavailable